createdAt,value
2023-05-07T00:00:32.224Z,90.98
2023-05-07T00:01:32.399Z,90.98
2023-05-07T00:02:32.513Z,90.95
2023-05-07T00:03:32.642Z,90.91
2023-05-07T00:04:32.665Z,90.89
2023-05-07T00:05:32.750Z,90.90
2023-05-07T00:06:32.921Z,90.91
2023-05-07T00:07:33.044Z,90.91
2023-05-07T00:08:33.153Z,90.91
2023-05-07T00:09:33.259Z,90.90
2023-05-07T00:10:33.403Z,90.91
2023-05-07T00:11:35.005Z,90.94
2023-05-07T00:12:33.738Z,90.98
2023-05-07T00:13:33.794Z,90.95
2023-05-07T00:14:33.936Z,90.92
2023-05-07T00:15:34.083Z,90.88
2023-05-07T00:16:34.220Z,90.88
2023-05-07T00:17:34.408Z,90.88
2023-05-07T00:18:34.408Z,90.86
2023-05-07T00:19:34.540Z,90.84
2023-05-07T00:20:36.226Z,90.86
2023-05-07T00:21:34.786Z,90.84
2023-05-07T00:22:34.894Z,90.86
2023-05-07T00:23:35.010Z,90.86
2023-05-07T00:24:35.153Z,90.88
2023-05-07T00:25:35.260Z,90.91
2023-05-07T00:26:35.397Z,90.90
2023-05-07T00:27:35.536Z,90.91
2023-05-07T00:28:35.647Z,90.90
2023-05-07T00:29:35.759Z,90.93
2023-05-07T00:30:35.879Z,90.95
2023-05-07T00:31:36.036Z,90.97
2023-05-07T00:32:36.228Z,90.99
2023-05-07T00:33:36.263Z,91.02
2023-05-07T00:34:36.417Z,91.05
2023-05-07T00:35:36.516Z,91.06
2023-05-07T00:36:36.623Z,91.07
2023-05-07T00:37:36.798Z,91.12
2023-05-07T00:38:36.900Z,91.10
2023-05-07T00:39:37.045Z,91.12
2023-05-07T00:40:37.141Z,91.11
2023-05-07T00:41:37.288Z,91.14
2023-05-07T00:42:37.634Z,91.14
2023-05-07T00:43:37.568Z,91.17
2023-05-07T00:44:37.687Z,91.14
2023-05-07T00:45:37.841Z,91.14
2023-05-07T00:46:37.964Z,91.13
2023-05-07T00:47:38.043Z,91.15
2023-05-07T00:48:38.132Z,91.14
2023-05-07T00:49:38.317Z,91.14
2023-05-07T00:50:38.341Z,91.16
2023-05-07T00:51:38.439Z,91.13
2023-05-07T00:52:38.598Z,91.17
2023-05-07T00:53:38.727Z,91.16
2023-05-07T00:54:38.820Z,91.19
2023-05-07T00:55:38.928Z,91.20
2023-05-07T00:56:39.026Z,91.21
2023-05-07T00:57:39.153Z,91.25
2023-05-07T00:58:39.299Z,91.27
2023-05-07T00:59:39.430Z,91.30
2023-05-07T01:00:39.516Z,91.33
2023-05-07T01:01:39.769Z,91.30
2023-05-07T01:02:39.818Z,91.29
2023-05-07T01:03:39.907Z,91.29
2023-05-07T01:04:40.090Z,91.28
2023-05-07T01:05:40.150Z,91.26
2023-05-07T01:06:40.275Z,91.26
2023-05-07T01:07:40.409Z,91.27
2023-05-07T01:08:40.508Z,91.26
2023-05-07T01:09:40.718Z,91.25
2023-05-07T01:10:40.783Z,91.25
2023-05-07T01:11:40.866Z,91.25
2023-05-07T01:12:41.166Z,91.25
2023-05-07T01:13:41.159Z,91.28
2023-05-07T01:14:41.328Z,91.29
2023-05-07T01:15:41.428Z,91.30
2023-05-07T01:16:41.570Z,91.33
2023-05-07T01:17:41.724Z,91.34
2023-05-07T01:18:41.800Z,91.35
2023-05-07T01:19:41.868Z,91.33
2023-05-07T01:20:41.991Z,91.35
2023-05-07T01:21:42.101Z,91.36
2023-05-07T01:22:42.220Z,91.39
2023-05-07T01:23:42.342Z,91.40
2023-05-07T01:24:42.454Z,91.37
2023-05-07T01:25:42.556Z,91.35
2023-05-07T01:26:42.747Z,91.32
2023-05-07T01:27:42.841Z,91.33
2023-05-07T01:28:43.006Z,91.34
2023-05-07T01:29:43.114Z,91.34
2023-05-07T01:30:43.206Z,91.41
2023-05-07T01:31:43.329Z,91.52
2023-05-07T01:32:43.493Z,91.59
2023-05-07T01:33:43.610Z,91.63
2023-05-07T01:34:43.733Z,91.66
2023-05-07T01:35:44.190Z,91.65
2023-05-07T01:36:43.963Z,91.63
2023-05-07T01:37:44.122Z,91.63
2023-05-07T01:38:44.252Z,91.58
2023-05-07T01:39:44.405Z,91.55
2023-05-07T01:40:44.618Z,91.56
2023-05-07T01:41:44.649Z,91.52
2023-05-07T01:42:44.807Z,91.52
2023-05-07T01:43:44.858Z,91.54
2023-05-07T01:44:45.038Z,91.57
2023-05-07T01:45:45.158Z,91.56
2023-05-07T01:46:45.325Z,91.55
2023-05-07T01:47:45.390Z,91.61
2023-05-07T01:48:45.515Z,91.56
2023-05-07T01:49:45.639Z,91.49
2023-05-07T01:50:45.802Z,91.48
2023-05-07T01:51:45.853Z,91.47
2023-05-07T01:52:45.950Z,91.43
2023-05-07T01:53:46.064Z,91.43
2023-05-07T01:54:46.230Z,91.45
2023-05-07T01:55:46.378Z,91.47
2023-05-07T01:56:46.445Z,91.49
2023-05-07T01:57:46.597Z,91.46
2023-05-07T01:58:46.683Z,91.45
2023-05-07T01:59:46.769Z,91.45
2023-05-07T02:00:47.084Z,91.45
2023-05-07T02:01:47.117Z,91.39
2023-05-07T02:02:47.384Z,91.39
2023-05-07T02:03:47.477Z,91.37
2023-05-07T02:04:47.438Z,91.38
2023-05-07T02:05:47.603Z,91.36
2023-05-07T02:06:47.687Z,91.33
2023-05-07T02:07:47.850Z,91.32
2023-05-07T02:08:47.853Z,91.31
2023-05-07T02:09:48.001Z,91.28
2023-05-07T02:10:48.099Z,91.25
2023-05-07T02:11:48.279Z,91.23
2023-05-07T02:12:48.404Z,91.25
2023-05-07T02:13:48.527Z,91.23
2023-05-07T02:14:48.656Z,91.23
2023-05-07T02:15:48.762Z,91.24
2023-05-07T02:16:48.949Z,91.28
2023-05-07T02:17:49.070Z,91.31
2023-05-07T02:18:49.178Z,91.33
2023-05-07T02:19:49.349Z,91.35
2023-05-07T02:20:49.382Z,91.34
2023-05-07T02:21:49.544Z,91.35
2023-05-07T02:22:49.572Z,91.35
2023-05-07T02:23:49.731Z,91.37
2023-05-07T02:24:49.817Z,91.39
2023-05-07T02:25:49.947Z,91.39
2023-05-07T02:26:50.085Z,91.38
2023-05-07T02:27:50.201Z,91.38
2023-05-07T02:28:50.271Z,91.43
2023-05-07T02:29:50.475Z,91.40
2023-05-07T02:30:50.521Z,91.39
2023-05-07T02:31:50.675Z,91.40
2023-05-07T02:32:50.858Z,91.36
2023-05-07T02:33:50.877Z,91.36
2023-05-07T02:34:51.029Z,91.38
2023-05-07T02:35:51.251Z,91.42
2023-05-07T02:36:51.253Z,91.44
2023-05-07T02:37:51.438Z,91.46
2023-05-07T02:38:51.501Z,91.44
2023-05-07T02:39:51.678Z,91.47
2023-05-07T02:40:51.794Z,91.46
2023-05-07T02:41:51.909Z,91.49
2023-05-07T02:42:52.032Z,91.53
2023-05-07T02:43:52.148Z,91.61
2023-05-07T02:44:52.256Z,91.63
2023-05-07T02:45:52.461Z,91.69
2023-05-07T02:46:52.631Z,91.73
2023-05-07T02:47:52.676Z,91.75
2023-05-07T02:48:52.821Z,91.79
2023-05-07T02:49:52.916Z,91.83
2023-05-07T02:50:53.092Z,91.85
2023-05-07T02:51:53.222Z,91.89
2023-05-07T02:52:53.365Z,91.95
2023-05-07T02:53:53.450Z,92.00
2023-05-07T02:54:53.595Z,92.04
2023-05-07T02:55:53.721Z,92.05
2023-05-07T02:56:53.797Z,92.05
2023-05-07T02:57:53.912Z,92.03
2023-05-07T02:58:54.047Z,92.04
2023-05-07T02:59:54.155Z,92.05
2023-05-07T03:00:54.419Z,92.05
2023-05-07T03:01:54.466Z,92.08
2023-05-07T03:02:54.497Z,92.09
2023-05-07T03:03:54.634Z,92.10
2023-05-07T03:04:54.756Z,92.16
2023-05-07T03:05:54.954Z,92.17
2023-05-07T03:06:55.175Z,92.22
2023-05-07T03:07:55.165Z,92.21
2023-05-07T03:08:55.256Z,92.25
2023-05-07T03:09:55.381Z,92.25
2023-05-07T03:10:55.490Z,92.24
2023-05-07T03:11:55.695Z,92.26
2023-05-07T03:12:55.822Z,92.28
2023-05-07T03:13:55.887Z,92.27
2023-05-07T03:14:55.945Z,92.27
2023-05-07T03:15:56.139Z,92.25
2023-05-07T03:16:56.276Z,92.22
2023-05-07T03:17:56.366Z,92.23
2023-05-07T03:18:56.551Z,92.23
2023-05-07T03:19:56.542Z,92.25
2023-05-07T03:20:56.719Z,92.23
2023-05-07T03:21:56.881Z,92.21
2023-05-07T03:22:56.915Z,92.22
2023-05-07T03:23:57.087Z,92.23
2023-05-07T03:24:57.204Z,92.24
2023-05-07T03:25:57.426Z,92.23
2023-05-07T03:26:57.514Z,92.23
2023-05-07T03:27:57.619Z,92.23
2023-05-07T03:28:57.724Z,92.22
2023-05-07T03:29:57.814Z,92.22
2023-05-07T03:30:58.002Z,92.21
2023-05-07T03:31:58.111Z,92.21
2023-05-07T03:32:58.292Z,92.20
2023-05-07T03:33:58.315Z,92.19
2023-05-07T03:34:58.437Z,92.22
2023-05-07T03:35:58.557Z,92.21
2023-05-07T03:36:58.694Z,92.20
2023-05-07T03:37:58.793Z,92.20
2023-05-07T03:38:58.988Z,92.18
2023-05-07T03:39:59.026Z,92.19
2023-05-07T03:40:59.182Z,92.19
2023-05-07T03:41:59.333Z,92.21
2023-05-07T03:42:59.436Z,92.20
2023-05-07T03:43:59.559Z,92.22
2023-05-07T03:44:59.692Z,92.22
2023-05-07T03:45:59.865Z,92.22
2023-05-07T03:47:00.040Z,92.28
2023-05-07T03:48:00.874Z,92.33
2023-05-07T03:49:00.200Z,92.38
2023-05-07T03:50:00.324Z,92.39
2023-05-07T03:51:00.533Z,92.42
2023-05-07T03:52:00.584Z,92.43
2023-05-07T03:53:00.676Z,92.45
2023-05-07T03:54:00.836Z,92.44
2023-05-07T03:55:00.916Z,92.44
2023-05-07T03:56:01.023Z,92.43
2023-05-07T03:57:01.128Z,92.42
2023-05-07T03:58:01.341Z,92.42
2023-05-07T03:59:01.398Z,92.38
2023-05-07T04:00:01.478Z,92.34
2023-05-07T04:01:01.699Z,92.34
2023-05-07T04:02:05.017Z,92.30
2023-05-07T04:03:01.909Z,92.33
2023-05-07T04:04:02.102Z,92.30
2023-05-07T04:05:02.117Z,92.27
2023-05-07T04:06:02.275Z,92.25
2023-05-07T04:07:02.516Z,92.19
2023-05-07T04:08:02.512Z,92.17
2023-05-07T04:09:02.651Z,92.17
2023-05-07T04:10:02.850Z,92.15
2023-05-07T04:11:02.878Z,92.14
2023-05-07T04:12:02.984Z,92.13
2023-05-07T04:13:06.837Z,92.10
2023-05-07T04:14:03.280Z,92.09
2023-05-07T04:15:03.391Z,92.08
2023-05-07T04:16:03.585Z,92.09
2023-05-07T04:17:03.690Z,92.09
2023-05-07T04:18:03.812Z,92.12
2023-05-07T04:19:03.901Z,92.14
2023-05-07T04:20:04.019Z,92.15
2023-05-07T04:21:04.076Z,92.16
2023-05-07T04:22:04.229Z,92.17
2023-05-07T04:23:04.350Z,92.18
2023-05-07T04:24:04.537Z,92.19
2023-05-07T04:25:04.695Z,92.19
2023-05-07T04:26:04.795Z,92.21
2023-05-07T04:27:04.886Z,92.23
2023-05-07T04:28:05.091Z,92.22
2023-05-07T04:29:05.156Z,92.22
2023-05-07T04:30:05.301Z,92.21
2023-05-07T04:31:05.424Z,92.21
2023-05-07T04:32:05.636Z,92.20
2023-05-07T04:33:05.785Z,92.20
2023-05-07T04:34:05.885Z,92.20
2023-05-07T04:35:05.953Z,92.19
2023-05-07T04:36:06.133Z,92.19
2023-05-07T04:37:06.264Z,92.18
2023-05-07T04:38:06.285Z,92.16
2023-05-07T04:39:06.417Z,92.16
2023-05-07T04:40:06.537Z,92.13
2023-05-07T04:41:06.663Z,92.11
2023-05-07T04:42:06.796Z,92.08
2023-05-07T04:43:06.874Z,92.06
2023-05-07T04:44:07.092Z,92.04
2023-05-07T04:45:07.140Z,92.06
2023-05-07T04:46:07.274Z,92.04
2023-05-07T04:47:07.427Z,92.01
2023-05-07T04:48:07.544Z,91.99
2023-05-07T04:49:07.643Z,91.99
2023-05-07T04:50:07.741Z,91.97
2023-05-07T04:51:07.927Z,91.98
2023-05-07T04:52:08.042Z,91.95
2023-05-07T04:53:08.200Z,91.90
2023-05-07T04:54:08.410Z,91.92
2023-05-07T04:55:08.392Z,91.92
2023-05-07T04:56:08.597Z,91.92
2023-05-07T04:57:08.694Z,91.95
2023-05-07T04:58:08.777Z,91.93
2023-05-07T04:59:09.300Z,91.92
2023-05-07T05:00:09.200Z,91.94
2023-05-07T05:01:09.215Z,91.94
2023-05-07T05:02:09.303Z,91.89
2023-05-07T05:03:09.463Z,91.89
2023-05-07T05:04:09.649Z,91.90
2023-05-07T05:05:09.686Z,91.90
2023-05-07T05:06:09.735Z,91.86
2023-05-07T05:07:09.879Z,91.77
2023-05-07T05:08:10.028Z,91.70
2023-05-07T05:09:10.098Z,91.67
2023-05-07T05:10:10.393Z,91.64
2023-05-07T05:11:10.320Z,91.64
2023-05-07T05:12:10.529Z,91.61
2023-05-07T05:13:10.566Z,91.61
2023-05-07T05:14:10.652Z,91.52
2023-05-07T05:15:10.727Z,91.43
2023-05-07T05:16:10.931Z,91.42
2023-05-07T05:17:10.921Z,91.40
2023-05-07T05:18:11.105Z,91.38
2023-05-07T05:19:11.257Z,91.41
2023-05-07T05:20:11.529Z,91.41
2023-05-07T05:21:11.478Z,91.36
2023-05-07T05:22:11.556Z,91.37
2023-05-07T05:23:11.679Z,91.27
2023-05-07T05:24:11.760Z,91.27
2023-05-07T05:25:11.884Z,91.25
2023-05-07T05:26:12.055Z,91.24
2023-05-07T05:27:12.148Z,91.14
2023-05-07T05:28:12.297Z,91.23
2023-05-07T05:29:12.460Z,91.28
2023-05-07T05:30:12.738Z,91.18
2023-05-07T05:31:12.690Z,91.14
2023-05-07T05:32:12.767Z,91.13
2023-05-07T05:33:12.952Z,90.97
2023-05-07T05:34:12.991Z,90.91
2023-05-07T05:35:13.097Z,90.88
2023-05-07T05:36:13.229Z,90.86
2023-05-07T05:37:13.356Z,90.89
2023-05-07T05:38:13.440Z,90.76
2023-05-07T05:39:13.561Z,90.67
2023-05-07T05:40:13.760Z,90.61
2023-05-07T05:41:13.763Z,90.53
2023-05-07T05:42:13.927Z,90.43
2023-05-07T05:43:14.010Z,90.46
2023-05-07T05:44:14.142Z,90.39
2023-05-07T05:45:14.326Z,90.45
2023-05-07T05:46:14.489Z,90.34
2023-05-07T05:47:14.617Z,90.12
2023-05-07T05:48:14.779Z,90.24
2023-05-07T05:49:14.802Z,90.08
2023-05-07T05:50:14.898Z,90.12
2023-05-07T05:51:15.042Z,90.08
2023-05-07T05:52:15.187Z,90.04
2023-05-07T05:53:15.299Z,90.04
2023-05-07T05:54:15.380Z,89.96
2023-05-07T05:55:15.494Z,90.10
2023-05-07T05:56:15.583Z,90.06
2023-05-07T05:57:15.776Z,89.99
2023-05-07T05:58:15.887Z,89.97
2023-05-07T05:59:16.103Z,89.94
2023-05-07T06:00:16.145Z,89.95
2023-05-07T06:01:16.224Z,89.85
2023-05-07T06:02:16.542Z,89.76
2023-05-07T06:03:16.594Z,89.36
2023-05-07T06:04:16.713Z,89.44
2023-05-07T06:05:16.821Z,89.67
2023-05-07T06:06:16.937Z,89.67
2023-05-07T06:07:17.043Z,89.59
2023-05-07T06:08:17.159Z,89.49
2023-05-07T06:09:17.248Z,89.42
2023-05-07T06:10:17.489Z,89.07
2023-05-07T06:11:17.494Z,88.66
2023-05-07T06:12:17.618Z,88.55
2023-05-07T06:13:17.834Z,88.62
2023-05-07T06:14:17.835Z,88.73
2023-05-07T06:15:17.957Z,88.46
2023-05-07T06:16:18.128Z,88.54
2023-05-07T06:17:20.883Z,88.73
2023-05-07T06:18:18.299Z,88.73
2023-05-07T06:19:18.394Z,88.95
2023-05-07T06:20:18.543Z,88.66
2023-05-07T06:21:18.653Z,88.50
2023-05-07T06:22:18.800Z,88.65
2023-05-07T06:23:18.850Z,88.75
2023-05-07T06:24:19.051Z,88.89
2023-05-07T06:25:19.117Z,88.86
2023-05-07T06:26:19.236Z,88.79
2023-05-07T06:27:19.390Z,88.45
2023-05-07T06:28:19.498Z,88.38
2023-05-07T06:29:19.651Z,88.41
2023-05-07T06:30:19.807Z,88.32
2023-05-07T06:31:19.897Z,88.48
2023-05-07T06:32:20.024Z,88.31
2023-05-07T06:33:20.129Z,88.23
2023-05-07T06:34:20.231Z,88.10
2023-05-07T06:35:20.365Z,87.83
2023-05-07T06:36:20.517Z,88.02
2023-05-07T06:37:20.621Z,88.19
2023-05-07T06:38:20.745Z,88.29
2023-05-07T06:39:20.814Z,88.11
2023-05-07T06:40:20.923Z,88.15
2023-05-07T06:41:21.098Z,88.48
2023-05-07T06:42:21.148Z,88.41
2023-05-07T06:43:21.250Z,88.03
2023-05-07T06:44:21.347Z,87.18
2023-05-07T06:45:22.011Z,87.09
2023-05-07T06:46:21.691Z,86.73
2023-05-07T06:47:21.728Z,86.86
2023-05-07T06:48:21.847Z,86.99
2023-05-07T06:49:22.012Z,86.70
2023-05-07T06:50:22.103Z,86.85
2023-05-07T06:51:22.610Z,86.74
2023-05-07T06:52:22.325Z,87.20
2023-05-07T06:53:22.433Z,87.31
2023-05-07T06:54:24.319Z,87.36
2023-05-07T06:55:22.677Z,86.76
2023-05-07T06:56:22.773Z,86.72
2023-05-07T06:57:22.924Z,86.97
2023-05-07T06:58:23.017Z,86.39
2023-05-07T06:59:23.124Z,86.55
2023-05-07T07:00:23.201Z,86.52
2023-05-07T07:01:23.374Z,86.81
2023-05-07T07:02:23.555Z,86.28
2023-05-07T07:03:23.529Z,86.15
2023-05-07T07:04:25.700Z,86.41
2023-05-07T07:05:23.777Z,86.54
2023-05-07T07:06:23.859Z,86.28
2023-05-07T07:07:24.008Z,86.17
2023-05-07T07:08:24.036Z,86.43
2023-05-07T07:09:24.295Z,86.15
2023-05-07T07:10:24.401Z,86.20
2023-05-07T07:11:24.444Z,85.73
2023-05-07T07:12:24.580Z,84.82
2023-05-07T07:13:24.809Z,84.93
2023-05-07T07:14:24.830Z,85.21
2023-05-07T07:15:24.982Z,85.41
2023-05-07T07:16:25.094Z,85.42
2023-05-07T07:17:25.361Z,85.03
2023-05-07T07:18:25.366Z,85.37
2023-05-07T07:19:25.534Z,85.33
2023-05-07T07:20:25.741Z,85.47
2023-05-07T07:21:25.766Z,85.88
2023-05-07T07:22:25.933Z,85.74
2023-05-07T07:23:26.026Z,85.77
2023-05-07T07:24:26.145Z,85.89
2023-05-07T07:25:26.269Z,85.86
2023-05-07T07:26:26.301Z,85.55
2023-05-07T07:27:26.425Z,85.87
2023-05-07T07:28:26.511Z,85.85
2023-05-07T07:29:26.661Z,85.58
2023-05-07T07:30:26.919Z,85.64
2023-05-07T07:31:27.041Z,85.46
2023-05-07T07:32:27.184Z,85.02
2023-05-07T07:33:27.241Z,84.23
2023-05-07T07:34:27.313Z,83.66
2023-05-07T07:35:27.420Z,83.53
2023-05-07T07:36:35.447Z,84.22
2023-05-07T07:37:28.645Z,83.93
2023-05-07T07:38:27.779Z,84.72
2023-05-07T07:39:27.895Z,84.53
2023-05-07T07:40:28.011Z,84.39
2023-05-07T07:41:28.152Z,84.05
2023-05-07T07:42:28.251Z,83.36
2023-05-07T07:43:28.431Z,82.10
2023-05-07T07:44:28.502Z,83.14
2023-05-07T07:45:28.626Z,82.96
2023-05-07T07:46:28.747Z,82.86
2023-05-07T07:47:28.927Z,82.95
2023-05-07T07:48:29.000Z,83.19
2023-05-07T07:49:29.131Z,83.43
2023-05-07T07:50:43.579Z,83.16
2023-05-07T07:51:30.363Z,83.21
2023-05-07T07:52:29.490Z,82.66
2023-05-07T07:53:29.593Z,82.41
2023-05-07T07:54:29.721Z,82.86
2023-05-07T07:55:29.831Z,82.53
2023-05-07T07:56:29.922Z,83.46
2023-05-07T07:57:30.045Z,82.67
2023-05-07T07:58:30.145Z,81.57
2023-05-07T07:59:30.370Z,81.74
2023-05-07T08:00:30.357Z,82.76
2023-05-07T08:01:30.518Z,83.00
2023-05-07T08:02:30.728Z,81.65
2023-05-07T08:03:30.869Z,81.09
2023-05-07T08:04:30.968Z,79.69
2023-05-07T08:05:31.074Z,79.16
2023-05-07T08:06:31.149Z,80.04
2023-05-07T08:07:31.224Z,79.16
2023-05-07T08:08:31.422Z,79.81
2023-05-07T08:09:31.555Z,79.90
2023-05-07T08:10:33.532Z,80.32
2023-05-07T08:11:31.798Z,81.14
2023-05-07T08:12:31.898Z,81.55
2023-05-07T08:13:32.050Z,80.46
2023-05-07T08:14:32.240Z,79.35
2023-05-07T08:15:32.387Z,79.29
2023-05-07T08:16:32.548Z,80.10
2023-05-07T08:17:32.626Z,77.16
2023-05-07T08:18:32.745Z,76.12
2023-05-07T08:19:32.866Z,78.34
2023-05-07T08:20:32.976Z,78.85
2023-05-07T08:21:34.584Z,79.85
2023-05-07T08:22:33.258Z,76.96
2023-05-07T08:23:33.337Z,79.21
2023-05-07T08:24:33.390Z,79.44
2023-05-07T08:25:33.545Z,76.89
2023-05-07T08:26:33.710Z,77.72
2023-05-07T08:27:33.792Z,78.58
2023-05-07T08:28:33.889Z,77.56
2023-05-07T08:29:34.030Z,77.55
2023-05-07T08:30:34.321Z,76.66
2023-05-07T08:31:34.285Z,75.72
2023-05-07T08:32:34.408Z,76.85
2023-05-07T08:33:34.533Z,76.04
2023-05-07T08:34:34.712Z,75.25
2023-05-07T08:35:34.872Z,76.53
2023-05-07T08:36:34.955Z,76.00
2023-05-07T08:37:35.051Z,74.88
2023-05-07T08:38:35.192Z,73.96
2023-05-07T08:39:35.388Z,73.87
2023-05-07T08:40:35.423Z,72.10
2023-05-07T08:41:35.531Z,74.80
2023-05-07T08:42:35.637Z,74.20
2023-05-07T08:43:35.748Z,74.14
2023-05-07T08:44:35.907Z,74.35
2023-05-07T08:45:36.010Z,72.74
2023-05-07T08:46:36.218Z,72.34
2023-05-07T08:47:36.356Z,71.86
2023-05-07T08:48:36.452Z,74.33
2023-05-07T08:49:36.500Z,73.49
2023-05-07T08:50:36.736Z,72.99
2023-05-07T08:51:36.789Z,74.06
2023-05-07T08:52:36.869Z,72.72
2023-05-07T08:53:36.966Z,73.10
2023-05-07T08:54:37.134Z,73.34
2023-05-07T08:55:37.236Z,73.96
2023-05-07T08:56:37.337Z,74.72
2023-05-07T08:57:40.274Z,73.59
2023-05-07T08:58:37.556Z,74.12
2023-05-07T08:59:37.735Z,71.06
2023-05-07T09:00:37.785Z,71.65
2023-05-07T09:01:37.929Z,73.64
2023-05-07T09:02:38.110Z,73.41
2023-05-07T09:03:38.161Z,71.95
2023-05-07T09:04:38.280Z,70.67
2023-05-07T09:05:38.372Z,69.24
2023-05-07T09:06:38.580Z,67.93
2023-05-07T09:07:38.626Z,67.57
2023-05-07T09:08:38.714Z,67.29
2023-05-07T09:09:38.885Z,68.25
2023-05-07T09:10:39.036Z,67.96
2023-05-07T09:11:39.135Z,67.93
2023-05-07T09:12:39.367Z,67.19
2023-05-07T09:13:39.428Z,65.80
2023-05-07T09:14:39.552Z,68.01
2023-05-07T09:15:39.686Z,66.22
2023-05-07T09:16:39.858Z,66.51
2023-05-07T09:17:40.056Z,70.00
2023-05-07T09:18:40.051Z,68.63
2023-05-07T09:19:40.195Z,66.60
2023-05-07T09:20:40.339Z,66.34
2023-05-07T09:21:40.452Z,65.81
2023-05-07T09:22:40.623Z,65.55
2023-05-07T09:23:40.818Z,64.87
2023-05-07T09:24:40.844Z,64.42
2023-05-07T09:25:40.977Z,64.92
2023-05-07T09:26:41.076Z,65.93
2023-05-07T09:27:41.236Z,62.15
2023-05-07T09:28:41.351Z,63.10
2023-05-07T09:29:41.480Z,62.27
2023-05-07T09:30:41.626Z,61.86
2023-05-07T09:31:41.804Z,60.41
2023-05-07T09:32:41.980Z,61.34
2023-05-07T09:33:42.014Z,61.10
2023-05-07T09:34:42.121Z,61.27
2023-05-07T09:35:42.237Z,64.86
2023-05-07T09:36:42.354Z,59.64
2023-05-07T09:37:42.525Z,59.52
2023-05-07T09:38:42.846Z,60.97
2023-05-07T09:39:42.779Z,60.66
2023-05-07T09:40:42.860Z,62.31
2023-05-07T09:41:43.038Z,62.93
2023-05-07T09:42:43.094Z,61.42
2023-05-07T09:43:43.249Z,59.25
2023-05-07T09:44:43.327Z,62.12
2023-05-07T09:45:43.512Z,60.69
2023-05-07T09:46:43.556Z,61.19
2023-05-07T09:47:43.746Z,64.61
2023-05-07T09:48:43.810Z,60.49
2023-05-07T09:49:43.931Z,59.80
2023-05-07T09:50:44.138Z,58.60
2023-05-07T09:51:44.206Z,61.66
2023-05-07T09:52:44.269Z,57.14
2023-05-07T09:53:44.418Z,54.82
2023-05-07T09:54:44.546Z,55.17
2023-05-07T09:55:44.678Z,57.01
2023-05-07T09:56:44.769Z,59.54
2023-05-07T09:57:44.877Z,58.59
2023-05-07T09:58:45.004Z,59.57
2023-05-07T09:59:45.152Z,57.28
2023-05-07T10:00:45.306Z,59.32
2023-05-07T10:01:45.386Z,59.81
2023-05-07T10:02:45.724Z,59.10
2023-05-07T10:03:45.833Z,58.67
2023-05-07T10:04:45.788Z,56.79
2023-05-07T10:05:45.909Z,56.60
2023-05-07T10:06:46.030Z,57.97
2023-05-07T10:07:46.207Z,57.71
2023-05-07T10:08:46.327Z,58.65
2023-05-07T10:09:48.886Z,58.25
2023-05-07T10:10:46.593Z,59.11
2023-05-07T10:11:46.722Z,60.01
2023-05-07T10:12:46.813Z,59.71
2023-05-07T10:13:46.906Z,59.49
2023-05-07T10:14:47.022Z,58.29
2023-05-07T10:15:47.122Z,58.21
2023-05-07T10:16:47.296Z,59.52
2023-05-07T10:17:47.480Z,59.81
2023-05-07T10:18:47.634Z,59.41
2023-05-07T10:19:47.667Z,57.28
2023-05-07T10:20:48.000Z,58.20
2023-05-07T10:21:47.898Z,58.28
2023-05-07T10:22:48.079Z,60.32
2023-05-07T10:23:48.116Z,57.97
2023-05-07T10:24:48.304Z,57.98
2023-05-07T10:25:48.381Z,57.43
2023-05-07T10:26:48.503Z,57.81
2023-05-07T10:27:48.617Z,55.91
2023-05-07T10:28:48.704Z,57.74
2023-05-07T10:29:48.864Z,57.62
2023-05-07T10:30:49.026Z,58.77
2023-05-07T10:31:49.155Z,59.30
2023-05-07T10:32:49.287Z,60.02
2023-05-07T10:33:49.423Z,59.08
2023-05-07T10:34:49.561Z,57.07
2023-05-07T10:35:49.637Z,57.42
2023-05-07T10:36:49.877Z,55.39
2023-05-07T10:37:49.969Z,55.40
2023-05-07T10:38:50.022Z,55.02
2023-05-07T10:39:50.128Z,58.43
2023-05-07T10:40:50.225Z,54.73
2023-05-07T10:41:50.366Z,55.38
2023-05-07T10:42:50.464Z,56.35
2023-05-07T10:43:50.576Z,57.04
2023-05-07T10:44:50.749Z,60.61
2023-05-07T10:45:50.883Z,57.69
2023-05-07T10:46:51.010Z,57.78
2023-05-07T10:47:51.179Z,55.39
2023-05-07T10:48:51.273Z,55.46
2023-05-07T10:49:51.434Z,55.95
2023-05-07T10:50:51.565Z,58.84
2023-05-07T10:51:51.718Z,59.01
2023-05-07T10:52:51.746Z,59.67
2023-05-07T10:53:51.901Z,60.64
2023-05-07T10:54:51.995Z,60.10
2023-05-07T10:55:52.145Z,58.17
2023-05-07T10:56:52.363Z,61.01
2023-05-07T10:57:52.446Z,59.31
2023-05-07T10:58:52.577Z,60.11
2023-05-07T10:59:52.690Z,57.09
2023-05-07T11:00:52.781Z,58.31
2023-05-07T11:01:53.035Z,59.03
2023-05-07T11:02:53.110Z,59.31
2023-05-07T11:03:53.185Z,56.80
2023-05-07T11:04:53.340Z,57.61
2023-05-07T11:05:53.478Z,60.54
2023-05-07T11:06:53.650Z,61.73
2023-05-07T11:07:53.780Z,60.14
2023-05-07T11:08:53.875Z,61.87
2023-05-07T11:09:54.038Z,61.88
2023-05-07T11:10:54.138Z,60.00
2023-05-07T11:11:54.226Z,60.86
2023-05-07T11:12:54.413Z,61.72
2023-05-07T11:13:54.469Z,63.01
2023-05-07T11:14:54.616Z,62.97
2023-05-07T11:15:54.776Z,62.26
2023-05-07T11:16:54.836Z,61.12
2023-05-07T11:17:55.104Z,59.78
2023-05-07T11:18:55.116Z,59.24
2023-05-07T11:19:55.198Z,62.02
2023-05-07T11:20:55.355Z,62.75
2023-05-07T11:21:55.485Z,59.75
2023-05-07T11:22:56.672Z,59.41
2023-05-07T11:23:55.747Z,59.63
2023-05-07T11:24:55.895Z,59.90
2023-05-07T11:25:56.040Z,60.63
2023-05-07T11:26:56.133Z,63.44
2023-05-07T11:27:56.258Z,65.05
2023-05-07T11:28:56.423Z,63.21
2023-05-07T11:29:56.465Z,61.52
2023-05-07T11:30:56.594Z,61.97
2023-05-07T11:31:56.734Z,62.24
2023-05-07T11:32:56.854Z,62.29
2023-05-07T11:33:56.968Z,62.69
2023-05-07T11:34:57.066Z,62.95
2023-05-07T11:35:57.181Z,63.34
2023-05-07T11:36:57.317Z,63.33
2023-05-07T11:37:57.538Z,64.56
2023-05-07T11:38:57.616Z,63.32
2023-05-07T11:39:57.777Z,63.20
2023-05-07T11:40:57.836Z,62.73
2023-05-07T11:41:57.973Z,62.55
2023-05-07T11:42:58.125Z,62.95
2023-05-07T11:43:58.269Z,62.41
2023-05-07T11:44:58.334Z,62.32
2023-05-07T11:45:58.487Z,63.17
2023-05-07T11:46:59.714Z,63.35
2023-05-07T11:47:58.765Z,63.34
2023-05-07T11:48:58.899Z,63.45
2023-05-07T11:49:58.971Z,64.20
2023-05-07T11:50:59.120Z,63.07
2023-05-07T11:51:59.209Z,63.52
2023-05-07T11:52:59.328Z,65.23
2023-05-07T11:53:59.478Z,67.63
2023-05-07T11:54:59.574Z,66.92
2023-05-07T11:55:59.721Z,68.16
2023-05-07T11:56:59.832Z,71.16
2023-05-07T11:58:00.029Z,70.53
2023-05-07T11:59:00.130Z,72.83
2023-05-07T12:00:00.187Z,74.41
2023-05-07T12:01:00.296Z,74.62
2023-05-07T12:02:00.455Z,74.65
2023-05-07T12:03:00.844Z,75.85
2023-05-07T12:04:00.782Z,76.64
2023-05-07T12:05:00.861Z,76.02
2023-05-07T12:06:00.988Z,76.41
2023-05-07T12:07:01.119Z,73.93
2023-05-07T12:08:01.313Z,74.37
2023-05-07T12:09:01.377Z,72.86
2023-05-07T12:10:01.535Z,73.71
2023-05-07T12:11:01.686Z,74.76
2023-05-07T12:12:01.693Z,73.42
2023-05-07T12:13:01.856Z,73.27
2023-05-07T12:14:01.983Z,72.82
2023-05-07T12:15:02.052Z,71.66
2023-05-07T12:16:02.160Z,71.57
2023-05-07T12:17:02.345Z,69.63
2023-05-07T12:18:02.657Z,70.82
2023-05-07T12:19:02.573Z,70.29
2023-05-07T12:20:02.751Z,70.70
2023-05-07T12:21:02.762Z,71.06
2023-05-07T12:22:02.948Z,70.74
2023-05-07T12:23:03.018Z,69.97
2023-05-07T12:24:03.110Z,70.53
2023-05-07T12:25:03.215Z,69.78
2023-05-07T12:26:05.735Z,70.73
2023-05-07T12:27:03.448Z,70.38
2023-05-07T12:28:03.545Z,70.58
2023-05-07T12:29:03.672Z,70.88
2023-05-07T12:30:03.774Z,70.85
2023-05-07T12:31:03.979Z,70.85
2023-05-07T12:32:07.047Z,73.32
2023-05-07T12:33:04.251Z,72.98
2023-05-07T12:34:04.314Z,73.18
2023-05-07T12:35:04.932Z,73.58
2023-05-07T12:36:04.510Z,73.99
2023-05-07T12:37:04.674Z,74.37
2023-05-07T12:38:04.855Z,74.30
2023-05-07T12:39:04.876Z,74.67
2023-05-07T12:40:04.997Z,74.42
2023-05-07T12:41:05.164Z,74.00
2023-05-07T12:42:05.197Z,74.23
2023-05-07T12:43:05.360Z,75.52
2023-05-07T12:44:05.443Z,75.71
2023-05-07T12:46:05.719Z,76.76
2023-05-07T12:47:05.787Z,76.32
2023-05-07T12:48:05.925Z,76.72
2023-05-07T12:49:06.072Z,76.90
2023-05-07T12:50:06.234Z,76.90
2023-05-07T12:51:06.291Z,76.58
2023-05-07T12:52:06.389Z,76.96
2023-05-07T12:53:06.592Z,76.26
2023-05-07T12:54:06.656Z,76.16
2023-05-07T12:55:06.770Z,76.92